sensor_id;sensor_type;location;lat;lon;timestamp;P1;durP1;ratioP1;P2;durP2;ratioP2
71176;SDS011;58877;51.992;4.504;2023-11-21T00:00:56;6.38;;;6.30;;
71176;SDS011;58877;51.992;4.504;2023-11-21T00:03:27;6.92;;;6.85;;
71176;SDS011;58877;51.992;4.504;2023-11-21T00:06:10;6.50;;;6.40;;
71176;SDS011;58877;51.992;4.504;2023-11-21T00:08:36;6.85;;;6.81;;
71176;SDS011;58877;51.992;4.504;2023-11-21T00:11:32;6.89;;;6.86;;
71176;SDS011;58877;51.992;4.504;2023-11-21T00:14:17;6.82;;;6.81;;
71176;SDS011;58877;51.992;4.504;2023-11-21T00:17:02;7.02;;;7.00;;
71176;SDS011;58877;51.992;4.504;2023-11-21T00:19:46;6.77;;;6.74;;
71176;SDS011;58877;51.992;4.504;2023-11-21T00:22:12;7.29;;;7.24;;
71176;SDS011;58877;51.992;4.504;2023-11-21T00:24:44;6.95;;;6.87;;
71176;SDS011;58877;51.992;4.504;2023-11-21T00:27:46;6.85;;;6.83;;
71176;SDS011;58877;51.992;4.504;2023-11-21T00:33:24;6.35;;;6.31;;
71176;SDS011;58877;51.992;4.504;2023-11-21T00:35:50;6.54;;;6.49;;
71176;SDS011;58877;51.992;4.504;2023-11-21T00:38:16;6.22;;;6.19;;
71176;SDS011;58877;51.992;4.504;2023-11-21T00:40:54;5.83;;;5.80;;
71176;SDS011;58877;51.992;4.504;2023-11-21T00:43:24;5.95;;;5.91;;
71176;SDS011;58877;51.992;4.504;2023-11-21T00:46:04;5.93;;;5.89;;
71176;SDS011;58877;51.992;4.504;2023-11-21T00:49:04;5.95;;;5.92;;
71176;SDS011;58877;51.992;4.504;2023-11-21T00:51:30;5.51;;;5.48;;
71176;SDS011;58877;51.992;4.504;2023-11-21T00:54:27;5.26;;;5.24;;
71176;SDS011;58877;51.992;4.504;2023-11-21T00:57:04;5.89;;;5.87;;
71176;SDS011;58877;51.992;4.504;2023-11-21T00:59:44;5.88;;;5.85;;
71176;SDS011;58877;51.992;4.504;2023-11-21T01:02:10;5.73;;;5.67;;
71176;SDS011;58877;51.992;4.504;2023-11-21T01:10:43;5.31;;;5.30;;
71176;SDS011;58877;51.992;4.504;2023-11-21T01:13:21;5.95;;;5.88;;
71176;SDS011;58877;51.992;4.504;2023-11-21T01:15:47;5.99;;;5.83;;
71176;SDS011;58877;51.992;4.504;2023-11-21T01:18:13;5.41;;;5.25;;
71176;SDS011;58877;51.992;4.504;2023-11-21T01:20:39;5.58;;;5.48;;
71176;SDS011;58877;51.992;4.504;2023-11-21T01:23:05;5.43;;;5.36;;
71176;SDS011;58877;51.992;4.504;2023-11-21T01:25:31;5.69;;;5.56;;
71176;SDS011;58877;51.992;4.504;2023-11-21T01:27:57;5.64;;;5.46;;
71176;SDS011;58877;51.992;4.504;2023-11-21T01:30:23;5.44;;;5.32;;
71176;SDS011;58877;51.992;4.504;2023-11-21T01:32:50;5.16;;;5.01;;
71176;SDS011;58877;51.992;4.504;2023-11-21T01:35:16;4.93;;;4.84;;
71176;SDS011;58877;51.992;4.504;2023-11-21T01:37:41;5.24;;;5.15;;
71176;SDS011;58877;51.992;4.504;2023-11-21T01:40:07;4.83;;;4.79;;
71176;SDS011;58877;51.992;4.504;2023-11-21T01:42:41;5.01;;;4.97;;
71176;SDS011;58877;51.992;4.504;2023-11-21T01:45:12;4.70;;;4.69;;
71176;SDS011;58877;51.992;4.504;2023-11-21T01:47:39;4.78;;;4.76;;
71176;SDS011;58877;51.992;4.504;2023-11-21T01:50:07;5.51;;;5.43;;
71176;SDS011;58877;51.992;4.504;2023-11-21T01:52:38;6.30;;;6.19;;
71176;SDS011;58877;51.992;4.504;2023-11-21T01:55:06;5.32;;;5.23;;
71176;SDS011;58877;51.992;4.504;2023-11-21T01:57:37;5.08;;;4.96;;
71176;SDS011;58877;51.992;4.504;2023-11-21T02:00:03;5.00;;;4.93;;
71176;SDS011;58877;51.992;4.504;2023-11-21T02:02:46;5.62;;;5.50;;
71176;SDS011;58877;51.992;4.504;2023-11-21T02:05:16;5.38;;;5.23;;
71176;SDS011;58877;51.992;4.504;2023-11-21T02:07:44;5.13;;;4.97;;
71176;SDS011;58877;51.992;4.504;2023-11-21T02:10:13;5.35;;;5.27;;
71176;SDS011;58877;51.992;4.504;2023-11-21T02:12:40;5.51;;;5.40;;
71176;SDS011;58877;51.992;4.504;2023-11-21T02:15:07;5.08;;;5.00;;
71176;SDS011;58877;51.992;4.504;2023-11-21T02:17:43;5.25;;;5.11;;
71176;SDS011;58877;51.992;4.504;2023-11-21T02:20:10;5.05;;;4.99;;
71176;SDS011;58877;51.992;4.504;2023-11-21T02:22:41;5.30;;;5.20;;
71176;SDS011;58877;51.992;4.504;2023-11-21T02:25:07;5.35;;;5.23;;
71176;SDS011;58877;51.992;4.504;2023-11-21T02:27:33;5.34;;;5.26;;
71176;SDS011;58877;51.992;4.504;2023-11-21T02:29:59;5.32;;;5.18;;
71176;SDS011;58877;51.992;4.504;2023-11-21T02:32:26;5.36;;;5.22;;
71176;SDS011;58877;51.992;4.504;2023-11-21T02:34:52;4.92;;;4.80;;
71176;SDS011;58877;51.992;4.504;2023-11-21T02:37:21;5.59;;;5.48;;
71176;SDS011;58877;51.992;4.504;2023-11-21T02:39:46;4.78;;;4.63;;
71176;SDS011;58877;51.992;4.504;2023-11-21T02:42:12;5.05;;;4.93;;
71176;SDS011;58877;51.992;4.504;2023-11-21T02:44:38;5.05;;;4.92;;
71176;SDS011;58877;51.992;4.504;2023-11-21T02:47:03;5.20;;;5.04;;
71176;SDS011;58877;51.992;4.504;2023-11-21T02:49:29;5.48;;;5.35;;
71176;SDS011;58877;51.992;4.504;2023-11-21T02:51:56;5.26;;;5.16;;
71176;SDS011;58877;51.992;4.504;2023-11-21T02:54:22;5.20;;;5.13;;
71176;SDS011;58877;51.992;4.504;2023-11-21T02:56:48;5.48;;;5.44;;
71176;SDS011;58877;51.992;4.504;2023-11-21T02:59:15;5.07;;;5.02;;
71176;SDS011;58877;51.992;4.504;2023-11-21T03:01:41;4.86;;;4.75;;
71176;SDS011;58877;51.992;4.504;2023-11-21T03:04:07;4.66;;;4.59;;
71176;SDS011;58877;51.992;4.504;2023-11-21T03:06:32;4.67;;;4.62;;
71176;SDS011;58877;51.992;4.504;2023-11-21T03:08:59;4.62;;;4.59;;
71176;SDS011;58877;51.992;4.504;2023-11-21T03:11:24;4.25;;;4.22;;
71176;SDS011;58877;51.992;4.504;2023-11-21T03:13:50;4.92;;;4.83;;
71176;SDS011;58877;51.992;4.504;2023-11-21T03:16:16;4.66;;;4.60;;
71176;SDS011;58877;51.992;4.504;2023-11-21T03:18:42;4.86;;;4.75;;
71176;SDS011;58877;51.992;4.504;2023-11-21T03:21:08;4.65;;;4.61;;
71176;SDS011;58877;51.992;4.504;2023-11-21T03:23:37;4.86;;;4.77;;
71176;SDS011;58877;51.992;4.504;2023-11-21T03:26:03;4.76;;;4.71;;
71176;SDS011;58877;51.992;4.504;2023-11-21T03:28:31;4.63;;;4.55;;
71176;SDS011;58877;51.992;4.504;2023-11-21T03:30:57;5.29;;;5.13;;
71176;SDS011;58877;51.992;4.504;2023-11-21T03:33:23;5.14;;;5.04;;
71176;SDS011;58877;51.992;4.504;2023-11-21T03:35:49;5.13;;;5.10;;
71176;SDS011;58877;51.992;4.504;2023-11-21T03:38:15;5.40;;;5.36;;
71176;SDS011;58877;51.992;4.504;2023-11-21T03:40:41;4.94;;;4.90;;
71176;SDS011;58877;51.992;4.504;2023-11-21T03:43:07;4.67;;;4.63;;
71176;SDS011;58877;51.992;4.504;2023-11-21T03:45:33;4.95;;;4.92;;
71176;SDS011;58877;51.992;4.504;2023-11-21T03:47:59;4.91;;;4.91;;
71176;SDS011;58877;51.992;4.504;2023-11-21T03:50:28;4.74;;;4.73;;
71176;SDS011;58877;51.992;4.504;2023-11-21T03:52:54;4.77;;;4.77;;
71176;SDS011;58877;51.992;4.504;2023-11-21T03:55:20;5.05;;;5.04;;
71176;SDS011;58877;51.992;4.504;2023-11-21T03:57:46;5.28;;;5.19;;
71176;SDS011;58877;51.992;4.504;2023-11-21T04:00:11;5.27;;;5.16;;
71176;SDS011;58877;51.992;4.504;2023-11-21T04:02:38;5.27;;;5.21;;
71176;SDS011;58877;51.992;4.504;2023-11-21T04:05:04;4.88;;;4.88;;
71176;SDS011;58877;51.992;4.504;2023-11-21T04:07:32;4.99;;;4.99;;
71176;SDS011;58877;51.992;4.504;2023-11-21T04:09:58;5.18;;;5.17;;
71176;SDS011;58877;51.992;4.504;2023-11-21T04:12:24;5.22;;;5.21;;
71176;SDS011;58877;51.992;4.504;2023-11-21T04:14:50;5.04;;;5.02;;
71176;SDS011;58877;51.992;4.504;2023-11-21T04:17:18;5.22;;;5.19;;
71176;SDS011;58877;51.992;4.504;2023-11-21T04:19:44;4.82;;;4.81;;
71176;SDS011;58877;51.992;4.504;2023-11-21T04:22:11;5.48;;;5.46;;
71176;SDS011;58877;51.992;4.504;2023-11-21T04:24:37;5.41;;;5.37;;
71176;SDS011;58877;51.992;4.504;2023-11-21T04:27:03;5.28;;;5.27;;
71176;SDS011;58877;51.992;4.504;2023-11-21T04:29:29;5.43;;;5.42;;
71176;SDS011;58877;51.992;4.504;2023-11-21T04:31:55;5.05;;;5.02;;
71176;SDS011;58877;51.992;4.504;2023-11-21T04:34:21;5.62;;;5.59;;
71176;SDS011;58877;51.992;4.504;2023-11-21T04:36:47;5.43;;;5.42;;
71176;SDS011;58877;51.992;4.504;2023-11-21T04:39:12;5.75;;;5.73;;
71176;SDS011;58877;51.992;4.504;2023-11-21T04:41:38;6.02;;;6.01;;
71176;SDS011;58877;51.992;4.504;2023-11-21T04:44:05;6.14;;;6.14;;
71176;SDS011;58877;51.992;4.504;2023-11-21T04:46:31;6.01;;;6.01;;
71176;SDS011;58877;51.992;4.504;2023-11-21T04:48:58;5.62;;;5.62;;
71176;SDS011;58877;51.992;4.504;2023-11-21T04:51:23;5.78;;;5.78;;
71176;SDS011;58877;51.992;4.504;2023-11-21T04:53:49;5.93;;;5.93;;
71176;SDS011;58877;51.992;4.504;2023-11-21T04:56:15;5.95;;;5.95;;
71176;SDS011;58877;51.992;4.504;2023-11-21T04:58:41;5.59;;;5.57;;
71176;SDS011;58877;51.992;4.504;2023-11-21T05:01:07;5.78;;;5.78;;
71176;SDS011;58877;51.992;4.504;2023-11-21T05:03:34;5.47;;;5.46;;
71176;SDS011;58877;51.992;4.504;2023-11-21T05:06:00;5.60;;;5.60;;
71176;SDS011;58877;51.992;4.504;2023-11-21T05:08:26;5.55;;;5.55;;
71176;SDS011;58877;51.992;4.504;2023-11-21T05:10:52;5.41;;;5.41;;
71176;SDS011;58877;51.992;4.504;2023-11-21T05:13:18;5.35;;;5.34;;
71176;SDS011;58877;51.992;4.504;2023-11-21T05:15:45;5.70;;;5.70;;
71176;SDS011;58877;51.992;4.504;2023-11-21T05:18:11;5.29;;;5.29;;
71176;SDS011;58877;51.992;4.504;2023-11-21T05:20:39;5.26;;;5.26;;
71176;SDS011;58877;51.992;4.504;2023-11-21T05:23:06;5.51;;;5.51;;
71176;SDS011;58877;51.992;4.504;2023-11-21T05:25:33;5.04;;;5.04;;
71176;SDS011;58877;51.992;4.504;2023-11-21T05:27:59;5.22;;;5.22;;
71176;SDS011;58877;51.992;4.504;2023-11-21T05:30:26;5.24;;;5.24;;
71176;SDS011;58877;51.992;4.504;2023-11-21T05:32:53;5.26;;;5.26;;
71176;SDS011;58877;51.992;4.504;2023-11-21T05:35:18;5.27;;;5.27;;
71176;SDS011;58877;51.992;4.504;2023-11-21T05:37:45;4.95;;;4.95;;
71176;SDS011;58877;51.992;4.504;2023-11-21T05:40:11;5.44;;;5.44;;
71176;SDS011;58877;51.992;4.504;2023-11-21T05:42:38;5.21;;;5.21;;
71176;SDS011;58877;51.992;4.504;2023-11-21T05:45:05;4.86;;;4.85;;
71176;SDS011;58877;51.992;4.504;2023-11-21T05:47:40;4.63;;;4.62;;
71176;SDS011;58877;51.992;4.504;2023-11-21T05:50:09;4.85;;;4.83;;
71176;SDS011;58877;51.992;4.504;2023-11-21T05:52:40;4.77;;;4.77;;
71176;SDS011;58877;51.992;4.504;2023-11-21T05:55:07;4.43;;;4.41;;
71176;SDS011;58877;51.992;4.504;2023-11-21T05:57:37;4.09;;;4.08;;
71176;SDS011;58877;51.992;4.504;2023-11-21T06:02:38;3.38;;;3.37;;
71176;SDS011;58877;51.992;4.504;2023-11-21T06:05:07;3.85;;;3.84;;
71176;SDS011;58877;51.992;4.504;2023-11-21T06:07:35;4.16;;;4.11;;
71176;SDS011;58877;51.992;4.504;2023-11-21T06:10:03;3.96;;;3.93;;
71176;SDS011;58877;51.992;4.504;2023-11-21T06:12:34;3.60;;;3.60;;
71176;SDS011;58877;51.992;4.504;2023-11-21T06:15:01;3.40;;;3.38;;
71176;SDS011;58877;51.992;4.504;2023-11-21T06:17:34;3.37;;;3.33;;
71176;SDS011;58877;51.992;4.504;2023-11-21T06:20:03;3.50;;;3.50;;
71176;SDS011;58877;51.992;4.504;2023-11-21T06:22:34;3.15;;;3.15;;
71176;SDS011;58877;51.992;4.504;2023-11-21T06:25:01;3.16;;;3.15;;
71176;SDS011;58877;51.992;4.504;2023-11-21T06:27:28;2.97;;;2.96;;
71176;SDS011;58877;51.992;4.504;2023-11-21T06:29:54;3.04;;;3.03;;
71176;SDS011;58877;51.992;4.504;2023-11-21T06:32:20;2.86;;;2.86;;
71176;SDS011;58877;51.992;4.504;2023-11-21T06:34:47;2.96;;;2.95;;
71176;SDS011;58877;51.992;4.504;2023-11-21T06:37:14;2.86;;;2.85;;
71176;SDS011;58877;51.992;4.504;2023-11-21T06:39:40;2.86;;;2.85;;
71176;SDS011;58877;51.992;4.504;2023-11-21T06:42:08;3.10;;;3.10;;
71176;SDS011;58877;51.992;4.504;2023-11-21T06:44:34;2.92;;;2.92;;
71176;SDS011;58877;51.992;4.504;2023-11-21T06:47:00;2.46;;;2.46;;
71176;SDS011;58877;51.992;4.504;2023-11-21T06:49:27;2.67;;;2.67;;
71176;SDS011;58877;51.992;4.504;2023-11-21T06:51:52;2.81;;;2.81;;
71176;SDS011;58877;51.992;4.504;2023-11-21T06:54:19;2.64;;;2.63;;
71176;SDS011;58877;51.992;4.504;2023-11-21T06:56:46;2.59;;;2.56;;
71176;SDS011;58877;51.992;4.504;2023-11-21T06:59:12;2.84;;;2.82;;
71176;SDS011;58877;51.992;4.504;2023-11-21T07:01:38;2.20;;;2.19;;
71176;SDS011;58877;51.992;4.504;2023-11-21T07:04:06;2.40;;;2.39;;
71176;SDS011;58877;51.992;4.504;2023-11-21T07:06:32;2.39;;;2.38;;
71176;SDS011;58877;51.992;4.504;2023-11-21T07:08:58;2.31;;;2.30;;
71176;SDS011;58877;51.992;4.504;2023-11-21T07:11:25;2.26;;;2.25;;
71176;SDS011;58877;51.992;4.504;2023-11-21T07:13:51;2.06;;;2.05;;
71176;SDS011;58877;51.992;4.504;2023-11-21T07:16:17;1.92;;;1.92;;
71176;SDS011;58877;51.992;4.504;2023-11-21T07:18:44;1.93;;;1.93;;
71176;SDS011;58877;51.992;4.504;2023-11-21T07:21:10;2.10;;;2.09;;
71176;SDS011;58877;51.992;4.504;2023-11-21T07:23:40;2.37;;;2.30;;
71176;SDS011;58877;51.992;4.504;2023-11-21T07:26:06;2.47;;;2.35;;
71176;SDS011;58877;51.992;4.504;2023-11-21T07:28:34;2.45;;;2.33;;
71176;SDS011;58877;51.992;4.504;2023-11-21T07:31:01;2.12;;;2.05;;
71176;SDS011;58877;51.992;4.504;2023-11-21T07:33:28;2.47;;;2.38;;
71176;SDS011;58877;51.992;4.504;2023-11-21T07:35:54;2.46;;;2.36;;
71176;SDS011;58877;51.992;4.504;2023-11-21T07:38:20;2.62;;;2.51;;
71176;SDS011;58877;51.992;4.504;2023-11-21T07:40:46;2.74;;;2.59;;
71176;SDS011;58877;51.992;4.504;2023-11-21T07:43:12;2.51;;;2.35;;
71176;SDS011;58877;51.992;4.504;2023-11-21T07:45:38;2.43;;;2.28;;
71176;SDS011;58877;51.992;4.504;2023-11-21T07:48:03;2.71;;;2.57;;
71176;SDS011;58877;51.992;4.504;2023-11-21T07:50:30;2.34;;;2.23;;
71176;SDS011;58877;51.992;4.504;2023-11-21T07:52:57;2.25;;;2.18;;
71176;SDS011;58877;51.992;4.504;2023-11-21T07:55:23;1.99;;;1.93;;
71176;SDS011;58877;51.992;4.504;2023-11-21T07:57:50;2.05;;;1.98;;
71176;SDS011;58877;51.992;4.504;2023-11-21T08:00:15;2.34;;;2.25;;
71176;SDS011;58877;51.992;4.504;2023-11-21T08:02:41;2.33;;;2.24;;
71176;SDS011;58877;51.992;4.504;2023-11-21T08:05:08;2.45;;;2.35;;
71176;SDS011;58877;51.992;4.504;2023-11-21T08:07:34;2.46;;;2.37;;
71176;SDS011;58877;51.992;4.504;2023-11-21T08:10:00;2.28;;;2.24;;
71176;SDS011;58877;51.992;4.504;2023-11-21T08:12:25;2.55;;;2.51;;
71176;SDS011;58877;51.992;4.504;2023-11-21T08:14:53;2.58;;;2.54;;
71176;SDS011;58877;51.992;4.504;2023-11-21T08:17:18;2.23;;;2.20;;
71176;SDS011;58877;51.992;4.504;2023-11-21T08:19:45;2.21;;;2.18;;
71176;SDS011;58877;51.992;4.504;2023-11-21T08:22:15;2.67;;;2.64;;
71176;SDS011;58877;51.992;4.504;2023-11-21T08:24:43;2.60;;;2.53;;
71176;SDS011;58877;51.992;4.504;2023-11-21T08:27:09;2.66;;;2.56;;
71176;SDS011;58877;51.992;4.504;2023-11-21T08:29:35;2.64;;;2.54;;
71176;SDS011;58877;51.992;4.504;2023-11-21T08:32:01;2.43;;;2.34;;
71176;SDS011;58877;51.992;4.504;2023-11-21T08:34:28;2.50;;;2.41;;
71176;SDS011;58877;51.992;4.504;2023-11-21T08:36:54;2.45;;;2.35;;
71176;SDS011;58877;51.992;4.504;2023-11-21T08:39:20;2.82;;;2.71;;
71176;SDS011;58877;51.992;4.504;2023-11-21T08:41:49;2.39;;;2.33;;
71176;SDS011;58877;51.992;4.504;2023-11-21T08:44:16;2.68;;;2.60;;
71176;SDS011;58877;51.992;4.504;2023-11-21T08:46:45;2.56;;;2.49;;
71176;SDS011;58877;51.992;4.504;2023-11-21T08:49:11;2.69;;;2.63;;
71176;SDS011;58877;51.992;4.504;2023-11-21T08:51:38;2.82;;;2.72;;
71176;SDS011;58877;51.992;4.504;2023-11-21T08:54:04;2.91;;;2.83;;
71176;SDS011;58877;51.992;4.504;2023-11-21T08:56:33;2.70;;;2.64;;
71176;SDS011;58877;51.992;4.504;2023-11-21T08:58:59;2.77;;;2.70;;
71176;SDS011;58877;51.992;4.504;2023-11-21T09:01:28;2.68;;;2.64;;
71176;SDS011;58877;51.992;4.504;2023-11-21T09:03:57;2.58;;;2.55;;
71176;SDS011;58877;51.992;4.504;2023-11-21T09:06:23;2.88;;;2.84;;
71176;SDS011;58877;51.992;4.504;2023-11-21T09:08:49;3.21;;;3.17;;
71176;SDS011;58877;51.992;4.504;2023-11-21T09:11:16;2.65;;;2.62;;
71176;SDS011;58877;51.992;4.504;2023-11-21T09:13:43;2.68;;;2.65;;
71176;SDS011;58877;51.992;4.504;2023-11-21T09:16:08;2.56;;;2.50;;
71176;SDS011;58877;51.992;4.504;2023-11-21T09:18:34;3.04;;;2.99;;
71176;SDS011;58877;51.992;4.504;2023-11-21T09:21:00;3.12;;;3.07;;
71176;SDS011;58877;51.992;4.504;2023-11-21T09:23:25;3.31;;;3.27;;
71176;SDS011;58877;51.992;4.504;2023-11-21T09:25:51;2.97;;;2.96;;
71176;SDS011;58877;51.992;4.504;2023-11-21T09:28:22;3.14;;;3.13;;
71176;SDS011;58877;51.992;4.504;2023-11-21T09:30:47;3.32;;;3.30;;
71176;SDS011;58877;51.992;4.504;2023-11-21T09:33:15;3.87;;;3.83;;
71176;SDS011;58877;51.992;4.504;2023-11-21T09:35:41;3.56;;;3.53;;
71176;SDS011;58877;51.992;4.504;2023-11-21T09:38:09;3.88;;;3.86;;
71176;SDS011;58877;51.992;4.504;2023-11-21T09:40:36;3.95;;;3.94;;
71176;SDS011;58877;51.992;4.504;2023-11-21T09:43:06;4.52;;;4.49;;
71176;SDS011;58877;51.992;4.504;2023-11-21T09:45:41;4.27;;;4.26;;
71176;SDS011;58877;51.992;4.504;2023-11-21T09:48:18;4.21;;;4.21;;
71176;SDS011;58877;51.992;4.504;2023-11-21T09:50:45;4.66;;;4.66;;
71176;SDS011;58877;51.992;4.504;2023-11-21T09:55:44;4.66;;;4.65;;
71176;SDS011;58877;51.992;4.504;2023-11-21T09:58:12;4.55;;;4.52;;
71176;SDS011;58877;51.992;4.504;2023-11-21T10:00:48;4.25;;;4.25;;
71176;SDS011;58877;51.992;4.504;2023-11-21T10:03:15;4.75;;;4.75;;
71176;SDS011;58877;51.992;4.504;2023-11-21T10:05:41;5.23;;;5.23;;
71176;SDS011;58877;51.992;4.504;2023-11-21T10:08:10;4.74;;;4.74;;
71176;SDS011;58877;51.992;4.504;2023-11-21T10:10:37;5.02;;;5.02;;
71176;SDS011;58877;51.992;4.504;2023-11-21T10:13:04;4.84;;;4.82;;
71176;SDS011;58877;51.992;4.504;2023-11-21T10:15:35;4.95;;;4.94;;
71176;SDS011;58877;51.992;4.504;2023-11-21T10:18:05;4.92;;;4.91;;
71176;SDS011;58877;51.992;4.504;2023-11-21T10:20:34;4.90;;;4.85;;
71176;SDS011;58877;51.992;4.504;2023-11-21T10:23:00;4.98;;;4.92;;
71176;SDS011;58877;51.992;4.504;2023-11-21T10:25:27;4.83;;;4.80;;
71176;SDS011;58877;51.992;4.504;2023-11-21T10:27:59;5.76;;;5.72;;
71176;SDS011;58877;51.992;4.504;2023-11-21T10:30:27;5.93;;;5.86;;
71176;SDS011;58877;51.992;4.504;2023-11-21T10:33:05;5.85;;;5.83;;
71176;SDS011;58877;51.992;4.504;2023-11-21T10:38:12;5.34;;;5.34;;
71176;SDS011;58877;51.992;4.504;2023-11-21T10:40:40;4.36;;;4.36;;
71176;SDS011;58877;51.992;4.504;2023-11-21T10:43:07;3.90;;;3.90;;
71176;SDS011;58877;51.992;4.504;2023-11-21T10:45:35;3.93;;;3.93;;
71176;SDS011;58877;51.992;4.504;2023-11-21T10:48:04;4.51;;;4.49;;
71176;SDS011;58877;51.992;4.504;2023-11-21T10:50:33;4.42;;;4.40;;
71176;SDS011;58877;51.992;4.504;2023-11-21T10:53:03;5.15;;;5.15;;
71176;SDS011;58877;51.992;4.504;2023-11-21T10:55:30;5.92;;;5.92;;
71176;SDS011;58877;51.992;4.504;2023-11-21T10:58:01;6.24;;;6.21;;
71176;SDS011;58877;51.992;4.504;2023-11-21T11:00:30;5.91;;;5.84;;
71176;SDS011;58877;51.992;4.504;2023-11-21T11:02:57;5.16;;;5.13;;
71176;SDS011;58877;51.992;4.504;2023-11-21T11:05:24;4.67;;;4.63;;
71176;SDS011;58877;51.992;4.504;2023-11-21T11:08:00;5.43;;;5.37;;
71176;SDS011;58877;51.992;4.504;2023-11-21T11:10:31;5.97;;;5.90;;
71176;SDS011;58877;51.992;4.504;2023-11-21T11:12:58;6.55;;;6.48;;
71176;SDS011;58877;51.992;4.504;2023-11-21T11:15:27;6.53;;;6.50;;
71176;SDS011;58877;51.992;4.504;2023-11-21T11:17:54;7.01;;;6.89;;
71176;SDS011;58877;51.992;4.504;2023-11-21T11:20:34;6.55;;;6.48;;
71176;SDS011;58877;51.992;4.504;2023-11-21T11:25:41;6.11;;;6.05;;
71176;SDS011;58877;51.992;4.504;2023-11-21T11:28:21;6.29;;;6.23;;
71176;SDS011;58877;51.992;4.504;2023-11-21T11:39:42;6.60;;;6.51;;
71176;SDS011;58877;51.992;4.504;2023-11-21T11:42:13;6.16;;;6.06;;
71176;SDS011;58877;51.992;4.504;2023-11-21T11:49:56;6.59;;;6.51;;
71176;SDS011;58877;51.992;4.504;2023-11-21T11:52:42;6.61;;;6.55;;
71176;SDS011;58877;51.992;4.504;2023-11-21T11:55:13;6.40;;;6.37;;
71176;SDS011;58877;51.992;4.504;2023-11-21T11:57:43;6.12;;;6.05;;
71176;SDS011;58877;51.992;4.504;2023-11-21T12:02:54;6.83;;;6.80;;
71176;SDS011;58877;51.992;4.504;2023-11-21T12:05:22;6.94;;;6.91;;
71176;SDS011;58877;51.992;4.504;2023-11-21T12:10:21;6.92;;;6.86;;
71176;SDS011;58877;51.992;4.504;2023-11-21T12:12:54;7.77;;;7.70;;
71176;SDS011;58877;51.992;4.504;2023-11-21T12:15:21;8.02;;;7.92;;
71176;SDS011;58877;51.992;4.504;2023-11-21T12:17:48;8.04;;;7.91;;
71176;SDS011;58877;51.992;4.504;2023-11-21T12:20:16;7.07;;;6.97;;
71176;SDS011;58877;51.992;4.504;2023-11-21T12:22:46;6.86;;;6.75;;
71176;SDS011;58877;51.992;4.504;2023-11-21T12:25:16;6.57;;;6.48;;
71176;SDS011;58877;51.992;4.504;2023-11-21T12:27:47;6.45;;;6.39;;
71176;SDS011;58877;51.992;4.504;2023-11-21T12:30:21;5.89;;;5.86;;
71176;SDS011;58877;51.992;4.504;2023-11-21T12:32:52;4.95;;;4.95;;
71176;SDS011;58877;51.992;4.504;2023-11-21T12:35:21;4.98;;;4.98;;
71176;SDS011;58877;51.992;4.504;2023-11-21T12:37:50;5.07;;;5.07;;
71176;SDS011;58877;51.992;4.504;2023-11-21T12:40:17;4.49;;;4.47;;
71176;SDS011;58877;51.992;4.504;2023-11-21T12:42:47;4.83;;;4.80;;
71176;SDS011;58877;51.992;4.504;2023-11-21T12:47:46;4.67;;;4.64;;
71176;SDS011;58877;51.992;4.504;2023-11-21T12:50:19;4.70;;;4.67;;
71176;SDS011;58877;51.992;4.504;2023-11-21T12:52:51;4.84;;;4.79;;
71176;SDS011;58877;51.992;4.504;2023-11-21T12:55:21;5.03;;;4.97;;
71176;SDS011;58877;51.992;4.504;2023-11-21T12:57:48;4.94;;;4.88;;
71176;SDS011;58877;51.992;4.504;2023-11-21T13:00:18;4.80;;;4.74;;
71176;SDS011;58877;51.992;4.504;2023-11-21T13:02:54;5.40;;;5.36;;
71176;SDS011;58877;51.992;4.504;2023-11-21T13:07:54;5.12;;;5.12;;
71176;SDS011;58877;51.992;4.504;2023-11-21T13:10:25;5.41;;;5.41;;
71176;SDS011;58877;51.992;4.504;2023-11-21T13:12:59;5.53;;;5.52;;
71176;SDS011;58877;51.992;4.504;2023-11-21T13:15:27;5.72;;;5.72;;
71176;SDS011;58877;51.992;4.504;2023-11-21T13:17:53;5.67;;;5.65;;
71176;SDS011;58877;51.992;4.504;2023-11-21T13:20:21;5.61;;;5.57;;
71176;SDS011;58877;51.992;4.504;2023-11-21T13:22:50;5.49;;;5.40;;
71176;SDS011;58877;51.992;4.504;2023-11-21T13:25:22;5.61;;;5.60;;
71176;SDS011;58877;51.992;4.504;2023-11-21T13:27:49;5.45;;;5.45;;
71176;SDS011;58877;51.992;4.504;2023-11-21T13:30:16;5.25;;;5.23;;
71176;SDS011;58877;51.992;4.504;2023-11-21T13:32:43;5.52;;;5.51;;
71176;SDS011;58877;51.992;4.504;2023-11-21T13:35:14;4.86;;;4.86;;
71176;SDS011;58877;51.992;4.504;2023-11-21T13:37:49;5.37;;;5.34;;
71176;SDS011;58877;51.992;4.504;2023-11-21T13:40:21;4.88;;;4.85;;
71176;SDS011;58877;51.992;4.504;2023-11-21T13:42:52;5.21;;;5.21;;
71176;SDS011;58877;51.992;4.504;2023-11-21T13:45:19;5.32;;;5.29;;
71176;SDS011;58877;51.992;4.504;2023-11-21T13:47:48;4.62;;;4.60;;
71176;SDS011;58877;51.992;4.504;2023-11-21T13:50:16;4.60;;;4.58;;
71176;SDS011;58877;51.992;4.504;2023-11-21T13:52:48;4.89;;;4.87;;
71176;SDS011;58877;51.992;4.504;2023-11-21T13:55:14;4.58;;;4.57;;
71176;SDS011;58877;51.992;4.504;2023-11-21T13:57:42;4.84;;;4.80;;
71176;SDS011;58877;51.992;4.504;2023-11-21T14:00:15;5.06;;;4.98;;
71176;SDS011;58877;51.992;4.504;2023-11-21T14:03:00;5.61;;;5.53;;
71176;SDS011;58877;51.992;4.504;2023-11-21T14:05:29;5.78;;;5.71;;
71176;SDS011;58877;51.992;4.504;2023-11-21T14:07:55;5.92;;;5.85;;
71176;SDS011;58877;51.992;4.504;2023-11-21T14:10:27;5.71;;;5.64;;
71176;SDS011;58877;51.992;4.504;2023-11-21T14:13:02;5.52;;;5.52;;
71176;SDS011;58877;51.992;4.504;2023-11-21T14:15:29;6.03;;;6.01;;
71176;SDS011;58877;51.992;4.504;2023-11-21T14:17:56;5.77;;;5.70;;
71176;SDS011;58877;51.992;4.504;2023-11-21T14:20:22;5.77;;;5.68;;
71176;SDS011;58877;51.992;4.504;2023-11-21T14:22:49;5.83;;;5.78;;
71176;SDS011;58877;51.992;4.504;2023-11-21T14:25:15;6.34;;;6.29;;
71176;SDS011;58877;51.992;4.504;2023-11-21T14:27:42;5.70;;;5.65;;
71176;SDS011;58877;51.992;4.504;2023-11-21T14:30:09;6.19;;;6.13;;
71176;SDS011;58877;51.992;4.504;2023-11-21T14:32:38;6.48;;;6.39;;
71176;SDS011;58877;51.992;4.504;2023-11-21T14:35:04;6.59;;;6.53;;
71176;SDS011;58877;51.992;4.504;2023-11-21T14:37:30;6.31;;;6.27;;
71176;SDS011;58877;51.992;4.504;2023-11-21T14:39:56;7.26;;;7.19;;
71176;SDS011;58877;51.992;4.504;2023-11-21T14:42:22;8.36;;;8.26;;
71176;SDS011;58877;51.992;4.504;2023-11-21T14:44:50;8.71;;;8.65;;
71176;SDS011;58877;51.992;4.504;2023-11-21T14:47:17;8.80;;;8.77;;
71176;SDS011;58877;51.992;4.504;2023-11-21T14:49:50;9.15;;;9.00;;
71176;SDS011;58877;51.992;4.504;2023-11-21T14:52:20;9.19;;;9.05;;
71176;SDS011;58877;51.992;4.504;2023-11-21T14:55:05;9.47;;;9.41;;
71176;SDS011;58877;51.992;4.504;2023-11-21T14:57:49;9.33;;;9.26;;
71176;SDS011;58877;51.992;4.504;2023-11-21T15:00:19;9.85;;;9.67;;
71176;SDS011;58877;51.992;4.504;2023-11-21T15:02:58;9.14;;;9.02;;
71176;SDS011;58877;51.992;4.504;2023-11-21T15:05:23;9.50;;;9.43;;
71176;SDS011;58877;51.992;4.504;2023-11-21T15:07:50;8.27;;;8.21;;
71176;SDS011;58877;51.992;4.504;2023-11-21T15:10:20;8.07;;;8.02;;
71176;SDS011;58877;51.992;4.504;2023-11-21T15:12:54;8.18;;;8.12;;
71176;SDS011;58877;51.992;4.504;2023-11-21T15:15:19;8.02;;;7.96;;
71176;SDS011;58877;51.992;4.504;2023-11-21T15:17:46;7.78;;;7.77;;
71176;SDS011;58877;51.992;4.504;2023-11-21T15:20:12;6.52;;;6.45;;
71176;SDS011;58877;51.992;4.504;2023-11-21T15:22:44;6.88;;;6.77;;
71176;SDS011;58877;51.992;4.504;2023-11-21T15:25:10;6.15;;;6.09;;
71176;SDS011;58877;51.992;4.504;2023-11-21T15:27:36;7.01;;;6.93;;
71176;SDS011;58877;51.992;4.504;2023-11-21T15:30:02;6.33;;;6.26;;
71176;SDS011;58877;51.992;4.504;2023-11-21T15:32:28;6.51;;;6.46;;
71176;SDS011;58877;51.992;4.504;2023-11-21T15:34:54;7.32;;;7.30;;
71176;SDS011;58877;51.992;4.504;2023-11-21T15:37:20;6.82;;;6.81;;
71176;SDS011;58877;51.992;4.504;2023-11-21T15:39:45;7.58;;;7.48;;